KWVL/WVL METAR and TAF weather

Enter ICAO airport designator
Station Type Date Time Source
KWVL METAR 2021/07/30 22:56 UTC NOAA

KWVL 302256Z AUTO 28007KT 230V300 10SM FEW050 19/11 A2967 RMK AO2 SLP071 T01940111


Station Type Date Time Source
KWVL Decoded METAR 2021/07/30 22:56 UTC NOAA

Waterville, Waterville Robert LaFleur Airport, ME, United States (KWVL) 44-32N 069-41W
Jul 30, 2021 - 06:56 PM EDT / 2021.07.30 2256 UTC
Wind: from the W (280 degrees) at 8 MPH (7 KT) (direction variable):0
Visibility: 10 mile(s):0
Sky conditions: mostly clear
Temperature: 66.9 F (19.4 C)
Dew Point: 52.0 F (11.1 C)
Relative Humidity: 58%
Pressure (altimeter): 29.67 in. Hg (1004 hPa)
ob: KWVL 302256Z AUTO 28007KT 230V300 10SM FEW050 19/11 A2967 RMK AO2 SLP071 T01940111
cycle: 23

Station Type Date Time Source
KWVL TAF UTC NOAA

Error!

Example: see airport list